createdAt,value
2018-06-02T00:00:19.536Z,19.50
2018-06-02T00:02:47.791Z,19.50
2018-06-02T00:05:15.358Z,19.40
2018-06-02T00:07:42.841Z,19.50
2018-06-02T00:10:11.100Z,19.60
2018-06-02T00:12:38.576Z,19.60
2018-06-02T00:15:06.834Z,19.60
2018-06-02T00:17:34.312Z,19.50
2018-06-02T00:20:02.572Z,19.60
2018-06-02T00:22:30.036Z,19.50
2018-06-02T00:24:58.306Z,19.60
2018-06-02T00:27:25.779Z,19.50
2018-06-02T00:29:54.043Z,19.60
2018-06-02T00:32:21.527Z,19.50
2018-06-02T00:34:49.016Z,19.50
2018-06-02T00:37:16.572Z,19.50
2018-06-02T00:39:44.093Z,19.50
2018-06-02T00:42:12.353Z,19.40
2018-06-02T00:44:40.612Z,19.40
2018-06-02T00:47:08.102Z,19.30
2018-06-02T00:49:36.392Z,19.50
2018-06-02T00:52:04.663Z,19.60
2018-06-02T00:54:44.824Z,19.60
2018-06-02T00:57:13.071Z,19.70
2018-06-02T00:59:40.579Z,19.70
2018-06-02T01:02:08.051Z,19.70
2018-06-02T01:04:35.558Z,19.60
2018-06-02T01:07:03.131Z,19.60
2018-06-02T01:09:31.399Z,19.60
2018-06-02T01:11:58.971Z,19.50
2018-06-02T01:14:27.242Z,19.60
2018-06-02T01:16:54.735Z,19.60
2018-06-02T01:19:22.215Z,19.60
2018-06-02T01:21:49.695Z,19.70
2018-06-02T01:24:17.179Z,19.70
2018-06-02T01:26:44.745Z,19.70
2018-06-02T01:29:12.992Z,19.80
2018-06-02T01:31:40.480Z,19.70
2018-06-02T01:34:08.747Z,19.80
2018-06-02T01:36:36.228Z,19.80
2018-06-02T01:39:05.263Z,19.80
2018-06-02T01:41:32.757Z,19.80
2018-06-02T01:44:00.241Z,19.80
2018-06-02T01:46:28.507Z,19.80
2018-06-02T01:48:56.756Z,19.80
2018-06-02T01:51:24.243Z,19.80
2018-06-02T01:53:52.494Z,19.90
2018-06-02T01:56:19.979Z,19.80
2018-06-02T01:58:48.242Z,19.90
2018-06-02T02:01:15.739Z,19.90
2018-06-02T02:03:43.281Z,19.90
2018-06-02T02:06:11.533Z,19.80
2018-06-02T02:08:39.019Z,19.80
2018-06-02T02:11:07.283Z,19.80
2018-06-02T02:13:34.756Z,19.80
2018-06-02T02:16:03.021Z,19.80
2018-06-02T02:18:31.295Z,19.80
2018-06-02T02:20:59.570Z,19.80
2018-06-02T02:23:27.130Z,19.80
2018-06-02T02:25:54.612Z,19.90
2018-06-02T02:28:22.865Z,19.90
2018-06-02T02:30:50.431Z,19.80
2018-06-02T02:33:17.991Z,19.90
2018-06-02T02:35:45.471Z,19.90
2018-06-02T02:38:14.077Z,19.90
2018-06-02T02:40:41.640Z,19.80
2018-06-02T02:43:09.131Z,19.90
2018-06-02T02:45:36.599Z,19.90
2018-06-02T02:48:04.107Z,19.90
2018-06-02T02:50:31.643Z,19.90
2018-06-02T02:52:59.921Z,19.90
2018-06-02T02:55:28.153Z,20.00
2018-06-02T02:57:55.659Z,19.90
2018-06-02T03:00:23.947Z,19.90
2018-06-02T03:02:52.217Z,20.00
2018-06-02T03:05:20.450Z,20.00
2018-06-02T03:07:48.050Z,19.90
2018-06-02T03:10:16.317Z,20.00
2018-06-02T03:12:43.802Z,20.00
2018-06-02T03:15:12.063Z,20.10
2018-06-02T03:17:40.337Z,20.00
2018-06-02T03:20:07.814Z,20.00
2018-06-02T03:22:36.068Z,20.00
2018-06-02T03:25:03.546Z,19.90
2018-06-02T03:27:31.808Z,20.00
2018-06-02T03:29:59.383Z,20.00
2018-06-02T03:32:27.663Z,20.10
2018-06-02T03:34:55.908Z,20.10
2018-06-02T03:37:23.406Z,20.10
2018-06-02T03:39:51.644Z,20.10
2018-06-02T03:42:19.134Z,20.10
2018-06-02T03:44:47.391Z,20.10
2018-06-02T03:47:14.892Z,20.10
2018-06-02T03:49:42.363Z,20.10
2018-06-02T03:52:09.890Z,20.10
2018-06-02T03:54:38.143Z,20.20
2018-06-02T03:57:05.623Z,20.10
2018-06-02T03:59:33.900Z,20.20
2018-06-02T04:02:02.146Z,20.30
2018-06-02T04:04:29.631Z,20.20
2018-06-02T04:06:57.879Z,20.30
2018-06-02T04:09:25.376Z,18.60
2018-06-02T04:11:53.630Z,20.50
2018-06-02T04:14:21.125Z,20.50
2018-06-02T04:16:48.725Z,20.60
2018-06-02T04:19:16.225Z,20.60
2018-06-02T04:21:44.479Z,20.70
2018-06-02T04:24:12.055Z,20.60
2018-06-02T04:26:39.548Z,20.60
2018-06-02T04:29:07.100Z,20.60
2018-06-02T04:31:35.352Z,20.70
2018-06-02T04:34:02.911Z,20.60
2018-06-02T04:36:30.391Z,20.70
2018-06-02T04:38:58.650Z,20.80
2018-06-02T04:41:26.151Z,20.80
2018-06-02T04:43:53.649Z,20.80
2018-06-02T04:46:21.231Z,20.80
2018-06-02T04:48:48.727Z,20.90
2018-06-02T04:51:16.220Z,20.80
2018-06-02T04:53:43.714Z,20.80
2018-06-02T04:56:11.989Z,20.70
2018-06-02T04:58:39.495Z,20.70
2018-06-02T05:01:06.984Z,20.70
2018-06-02T05:03:39.361Z,20.70
2018-06-02T05:06:07.619Z,20.70
2018-06-02T05:08:35.113Z,20.70
2018-06-02T05:11:03.395Z,20.70
2018-06-02T05:13:31.681Z,20.80
2018-06-02T05:15:59.947Z,20.80
2018-06-02T05:18:27.427Z,20.80
2018-06-02T05:20:55.704Z,21.00
2018-06-02T05:23:23.978Z,20.90
2018-06-02T05:25:52.234Z,20.90
2018-06-02T05:28:20.472Z,20.90
2018-06-02T05:30:47.967Z,20.90
2018-06-02T05:33:15.448Z,20.90
2018-06-02T05:35:43.770Z,20.90
2018-06-02T05:38:11.251Z,20.80
2018-06-02T05:40:38.747Z,20.90
2018-06-02T05:43:07.024Z,20.80
2018-06-02T05:45:35.300Z,20.90
2018-06-02T05:48:03.592Z,21.00
2018-06-02T05:50:31.096Z,20.90
2018-06-02T05:52:58.599Z,21.00
2018-06-02T05:55:26.857Z,21.10
2018-06-02T06:00:29.059Z,21.10
2018-06-02T06:02:57.352Z,21.10
2018-06-02T06:05:25.606Z,21.10
2018-06-02T06:07:53.074Z,21.10
2018-06-02T06:10:21.355Z,21.30
2018-06-02T06:12:49.610Z,21.30
2018-06-02T06:15:17.218Z,21.20
2018-06-02T06:17:44.698Z,21.30
2018-06-02T06:20:12.219Z,21.30
2018-06-02T06:22:40.489Z,21.40
2018-06-02T06:25:08.765Z,21.50
2018-06-02T06:27:37.010Z,21.40
2018-06-02T06:30:04.495Z,21.40
2018-06-02T06:32:32.750Z,21.40
2018-06-02T06:35:00.235Z,21.40
2018-06-02T06:37:28.494Z,21.50
2018-06-02T06:39:55.979Z,21.50
2018-06-02T06:42:24.247Z,21.60
2018-06-02T06:44:52.500Z,21.50
2018-06-02T06:47:20.081Z,21.50
2018-06-02T06:49:47.646Z,21.50
2018-06-02T06:52:15.915Z,21.70
2018-06-02T06:54:43.487Z,21.60
2018-06-02T06:57:11.762Z,21.90
2018-06-02T06:59:39.232Z,21.80
2018-06-02T07:02:07.494Z,21.90
2018-06-02T07:04:35.053Z,21.90
2018-06-02T07:07:02.572Z,22.00
2018-06-02T07:09:30.056Z,22.00
2018-06-02T07:11:57.562Z,22.10
2018-06-02T07:14:25.050Z,22.10
2018-06-02T07:16:52.541Z,22.30
2018-06-02T07:19:20.794Z,22.50
2018-06-02T07:21:48.427Z,22.50
2018-06-02T07:24:16.671Z,22.60
2018-06-02T07:26:44.952Z,22.50
2018-06-02T07:29:13.192Z,22.50
2018-06-02T07:31:40.872Z,22.50
2018-06-02T07:34:08.372Z,22.60
2018-06-02T07:36:36.637Z,22.90
2018-06-02T07:39:05.800Z,23.10
2018-06-02T07:41:34.055Z,23.50
2018-06-02T07:44:01.539Z,23.50
2018-06-02T07:46:29.800Z,24.50
2018-06-02T07:48:57.289Z,24.40
2018-06-02T07:51:24.768Z,24.60
2018-06-02T07:53:53.027Z,25.00
2018-06-02T07:56:21.285Z,25.40
2018-06-02T07:58:48.992Z,25.30
2018-06-02T08:01:19.031Z,25.30
2018-06-02T08:03:46.555Z,25.30
2018-06-02T08:06:14.040Z,25.20
2018-06-02T08:08:41.587Z,24.90
2018-06-02T08:11:09.508Z,24.70
2018-06-02T08:13:37.803Z,24.70
2018-06-02T08:16:05.281Z,24.70
2018-06-02T08:18:33.538Z,24.90
2018-06-02T08:21:01.825Z,24.90
2018-06-02T08:23:29.332Z,24.90
2018-06-02T08:25:56.824Z,24.90
2018-06-02T08:28:24.425Z,24.90
2018-06-02T08:30:52.707Z,24.80
2018-06-02T08:33:20.672Z,24.80
2018-06-02T08:35:48.970Z,24.90
2018-06-02T08:38:16.496Z,24.80
2018-06-02T08:40:44.017Z,25.00
2018-06-02T08:43:11.538Z,24.90
2018-06-02T08:45:39.796Z,24.70
2018-06-02T08:48:07.301Z,24.70
2018-06-02T08:50:34.770Z,24.90
2018-06-02T08:53:02.264Z,24.90
2018-06-02T08:55:29.740Z,24.80
2018-06-02T08:57:58.016Z,24.90
2018-06-02T09:00:26.316Z,25.30
2018-06-02T09:02:53.860Z,25.20
2018-06-02T09:05:22.176Z,25.80
2018-06-02T09:07:49.635Z,25.80
2018-06-02T09:10:17.165Z,25.80
2018-06-02T09:12:45.523Z,25.60
2018-06-02T09:15:13.758Z,25.60
2018-06-02T09:17:41.247Z,25.60
2018-06-02T09:20:10.253Z,25.80
2018-06-02T09:22:38.525Z,25.70
2018-06-02T09:25:06.103Z,25.70
2018-06-02T09:27:34.406Z,26.00
2018-06-02T09:30:01.969Z,25.90
2018-06-02T09:32:29.471Z,26.10
2018-06-02T09:35:00.789Z,26.20
2018-06-02T09:37:28.274Z,26.20
2018-06-02T09:39:55.778Z,25.90
2018-06-02T09:42:24.054Z,25.60
2018-06-02T09:44:51.561Z,25.50
2018-06-02T09:47:19.035Z,25.40
2018-06-02T09:49:46.625Z,25.20
2018-06-02T09:52:14.875Z,25.10
2018-06-02T09:54:42.367Z,25.00
2018-06-02T09:57:09.854Z,25.00
2018-06-02T09:59:37.347Z,25.00
2018-06-02T10:02:04.842Z,24.90
2018-06-02T10:04:33.142Z,25.10
2018-06-02T10:07:01.364Z,25.40
2018-06-02T10:09:28.857Z,25.30
2018-06-02T10:11:57.113Z,25.40
2018-06-02T10:14:24.627Z,25.40
2018-06-02T10:16:52.112Z,25.60
2018-06-02T10:19:19.598Z,25.60
2018-06-02T10:21:47.852Z,25.10
2018-06-02T10:24:15.356Z,25.00
2018-06-02T10:26:42.839Z,25.10
2018-06-02T10:29:10.330Z,25.20
2018-06-02T10:31:37.824Z,25.10
2018-06-02T10:34:06.083Z,25.00
2018-06-02T10:36:34.362Z,24.80
2018-06-02T10:39:01.933Z,24.80
2018-06-02T10:41:30.219Z,24.50
2018-06-02T10:43:58.466Z,24.50
2018-06-02T10:46:25.973Z,24.50
2018-06-02T10:48:53.460Z,24.50
2018-06-02T10:51:20.991Z,24.60
2018-06-02T10:53:48.510Z,24.60
2018-06-02T10:56:16.014Z,24.90
2018-06-02T10:58:43.507Z,25.10
2018-06-02T11:01:10.992Z,25.30
2018-06-02T11:03:38.486Z,25.20
2018-06-02T11:06:06.036Z,25.40
2018-06-02T11:08:34.284Z,25.60
2018-06-02T11:11:01.789Z,25.60
2018-06-02T11:13:29.285Z,25.50
2018-06-02T11:15:56.791Z,25.60
2018-06-02T11:18:25.027Z,25.40
2018-06-02T11:20:52.532Z,25.40
2018-06-02T11:23:20.062Z,25.50
2018-06-02T11:25:47.597Z,25.50
2018-06-02T11:28:15.050Z,25.60
2018-06-02T11:30:42.648Z,25.60
2018-06-02T11:33:10.888Z,25.10
2018-06-02T11:35:38.492Z,25.10
2018-06-02T11:38:06.735Z,24.80
2018-06-02T11:40:34.231Z,24.80
2018-06-02T11:43:02.524Z,24.70
2018-06-02T11:45:30.082Z,24.60
2018-06-02T11:47:58.160Z,24.80
2018-06-02T11:50:25.643Z,25.00
2018-06-02T11:52:53.147Z,25.10
2018-06-02T11:55:20.907Z,25.20
2018-06-02T11:57:48.484Z,25.20
2018-06-02T12:00:16.761Z,25.00
2018-06-02T12:02:45.028Z,24.90
2018-06-02T12:05:12.520Z,24.80
2018-06-02T12:07:40.051Z,24.80
2018-06-02T12:10:07.621Z,24.90
2018-06-02T12:12:35.909Z,25.00
2018-06-02T12:15:04.157Z,24.90
2018-06-02T12:17:31.753Z,24.80
2018-06-02T12:20:00.018Z,25.00
2018-06-02T12:22:28.279Z,25.00
2018-06-02T12:24:55.768Z,24.90
2018-06-02T12:27:23.401Z,25.10
2018-06-02T12:29:50.883Z,25.20
2018-06-02T12:32:18.420Z,25.10
2018-06-02T12:34:45.932Z,25.00
2018-06-02T12:37:13.449Z,24.90
2018-06-02T12:39:41.681Z,25.00
2018-06-02T12:42:09.194Z,24.90
2018-06-02T12:44:37.470Z,25.00
2018-06-02T12:47:05.737Z,25.20
2018-06-02T12:49:33.218Z,25.10
2018-06-02T12:52:01.518Z,25.30
2018-06-02T12:54:29.004Z,25.30
2018-06-02T12:56:56.504Z,25.30
2018-06-02T12:59:24.758Z,25.20
2018-06-02T13:01:52.338Z,25.10
2018-06-02T13:04:19.859Z,25.10
2018-06-02T13:06:47.343Z,25.10
2018-06-02T13:09:14.843Z,25.20
2018-06-02T13:11:42.383Z,25.30
2018-06-02T13:14:10.753Z,25.30
2018-06-02T13:16:39.216Z,25.30
2018-06-02T13:19:06.975Z,25.30
2018-06-02T13:21:34.553Z,25.40
2018-06-02T13:24:02.241Z,25.30
2018-06-02T13:26:31.514Z,25.40
2018-06-02T13:28:59.091Z,25.50
2018-06-02T13:31:27.387Z,25.70
2018-06-02T13:33:54.952Z,25.70
2018-06-02T13:36:22.591Z,26.00
2018-06-02T13:38:50.888Z,26.40
2018-06-02T13:41:18.365Z,26.40
2018-06-02T13:43:47.881Z,26.50
2018-06-02T13:46:15.394Z,26.30
2018-06-02T13:48:43.674Z,26.10
2018-06-02T13:51:14.519Z,26.20
2018-06-02T13:53:42.102Z,26.10
2018-06-02T13:56:09.571Z,26.00
2018-06-02T13:58:37.822Z,25.90
2018-06-02T14:01:05.321Z,25.80
2018-06-02T14:03:32.818Z,25.90
2018-06-02T14:06:01.084Z,25.80
2018-06-02T14:08:28.646Z,25.80
2018-06-02T14:10:56.219Z,25.90
2018-06-02T14:13:23.778Z,26.10
2018-06-02T14:15:51.265Z,26.30
2018-06-02T14:18:18.750Z,26.40
2018-06-02T14:20:46.232Z,26.40
2018-06-02T14:23:13.816Z,26.50
2018-06-02T14:25:41.316Z,26.50
2018-06-02T14:28:08.842Z,26.40
2018-06-02T14:30:37.121Z,26.60
2018-06-02T14:33:05.373Z,26.70
2018-06-02T14:35:32.952Z,26.70
2018-06-02T14:38:01.266Z,26.80
2018-06-02T14:40:28.703Z,26.80
2018-06-02T14:42:56.948Z,26.70
2018-06-02T14:45:24.524Z,26.70
2018-06-02T14:47:51.991Z,26.60
2018-06-02T14:50:20.256Z,26.30
2018-06-02T14:52:47.741Z,26.20
2018-06-02T14:55:15.287Z,26.20
2018-06-02T14:57:42.747Z,26.10
2018-06-02T15:00:11.021Z,26.20
2018-06-02T15:02:39.283Z,25.90
2018-06-02T15:05:07.535Z,25.50
2018-06-02T15:07:35.066Z,25.50
2018-06-02T15:10:02.573Z,25.60
2018-06-02T15:12:30.038Z,25.60
2018-06-02T15:14:57.616Z,25.70
2018-06-02T15:17:25.851Z,25.70
2018-06-02T15:19:53.351Z,25.60
2018-06-02T15:22:21.634Z,25.60
2018-06-02T15:24:49.899Z,25.60
2018-06-02T15:27:17.367Z,25.60
2018-06-02T15:29:45.628Z,25.60
2018-06-02T15:32:13.132Z,25.50
2018-06-02T15:34:40.643Z,25.60
2018-06-02T15:37:08.111Z,25.60
2018-06-02T15:39:35.629Z,25.50
2018-06-02T15:42:03.127Z,25.50
2018-06-02T15:44:30.591Z,25.30
2018-06-02T15:46:58.080Z,25.00
2018-06-02T15:49:25.573Z,25.00
2018-06-02T15:51:53.082Z,25.10
2018-06-02T15:54:22.019Z,25.10
2018-06-02T15:56:49.552Z,25.10
2018-06-02T15:59:17.035Z,25.10
2018-06-02T16:01:44.551Z,25.00
2018-06-02T16:04:12.838Z,24.70
2018-06-02T16:06:40.330Z,24.70
2018-06-02T16:09:07.820Z,24.70
2018-06-02T16:11:35.316Z,24.70
2018-06-02T16:14:03.576Z,24.40
2018-06-02T16:16:31.863Z,24.20
2018-06-02T16:19:00.126Z,24.10
2018-06-02T16:21:27.620Z,24.10
2018-06-02T16:23:55.109Z,24.20
2018-06-02T16:26:22.711Z,24.20
2018-06-02T16:28:50.958Z,24.30
2018-06-02T16:31:18.462Z,24.20
2018-06-02T16:33:46.807Z,24.30
2018-06-02T16:36:14.269Z,24.30
2018-06-02T16:38:42.818Z,24.30
2018-06-02T16:41:10.337Z,24.10
2018-06-02T16:43:38.592Z,23.80
2018-06-02T16:46:06.085Z,23.70
2018-06-02T16:48:34.333Z,23.60
2018-06-02T16:51:01.845Z,23.50
2018-06-02T16:53:29.356Z,23.60
2018-06-02T16:55:56.837Z,23.50
2018-06-02T16:58:25.083Z,23.40
2018-06-02T17:00:54.091Z,23.20
2018-06-02T17:03:22.354Z,23.10
2018-06-02T17:05:50.652Z,23.10
2018-06-02T17:08:18.899Z,23.00
2018-06-02T17:10:46.402Z,22.90
2018-06-02T17:13:13.913Z,22.90
2018-06-02T17:15:42.168Z,22.80
2018-06-02T17:18:09.675Z,22.80
2018-06-02T17:20:37.939Z,22.90
2018-06-02T17:23:05.435Z,22.80
2018-06-02T17:25:32.975Z,22.80
2018-06-02T17:28:01.267Z,22.80
2018-06-02T17:30:28.760Z,22.80
2018-06-02T17:32:56.276Z,22.80
2018-06-02T17:35:24.631Z,22.90
2018-06-02T17:37:52.141Z,22.80
2018-06-02T17:40:19.629Z,22.80
2018-06-02T17:42:47.262Z,22.70
2018-06-02T17:45:14.840Z,22.70
2018-06-02T17:47:42.380Z,22.70
2018-06-02T17:50:09.879Z,22.70
2018-06-02T17:52:38.255Z,22.60
2018-06-02T17:55:05.795Z,22.60
2018-06-02T17:57:33.354Z,22.60
2018-06-02T18:00:00.866Z,22.60
2018-06-02T18:02:28.438Z,22.60
2018-06-02T18:04:56.693Z,22.60
2018-06-02T18:07:24.962Z,22.60
2018-06-02T18:10:20.111Z,22.60
2018-06-02T18:12:48.395Z,22.60
2018-06-02T18:15:16.489Z,22.60
2018-06-02T18:17:44.611Z,22.50
2018-06-02T18:20:12.715Z,22.40
2018-06-02T18:22:40.820Z,22.30
2018-06-02T18:25:08.904Z,22.20
2018-06-02T18:27:37.049Z,22.10
2018-06-02T18:30:05.566Z,22.10
2018-06-02T18:32:33.658Z,22.10
2018-06-02T18:35:01.762Z,22.20
2018-06-02T18:37:29.837Z,22.10
2018-06-02T18:39:57.996Z,22.00
2018-06-02T18:42:26.109Z,22.00
2018-06-02T18:44:54.193Z,22.00
2018-06-02T18:47:22.312Z,21.90
2018-06-02T18:49:50.505Z,21.90
2018-06-02T18:52:19.017Z,21.80
2018-06-02T18:54:47.135Z,21.80
2018-06-02T18:57:15.259Z,21.80
2018-06-02T18:59:43.445Z,21.70
2018-06-02T19:02:11.581Z,21.60
2018-06-02T19:04:41.797Z,21.60
2018-06-02T19:07:09.969Z,21.70
2018-06-02T19:09:38.202Z,21.60
2018-06-02T19:12:06.383Z,21.60
2018-06-02T19:14:34.495Z,21.60
2018-06-02T19:17:02.724Z,21.60
2018-06-02T19:19:30.883Z,21.50
2018-06-02T19:21:59.011Z,21.40
2018-06-02T19:24:27.227Z,21.40
2018-06-02T19:26:55.499Z,21.50
2018-06-02T19:29:23.634Z,21.40
2018-06-02T19:31:51.735Z,21.40
2018-06-02T19:34:20.030Z,21.30
2018-06-02T19:36:48.244Z,21.40
2018-06-02T19:39:16.347Z,21.30
2018-06-02T19:44:12.451Z,21.30
2018-06-02T19:46:40.674Z,21.30
2018-06-02T19:49:08.846Z,21.30
2018-06-02T19:51:37.003Z,21.30
2018-06-02T19:54:05.180Z,21.30
2018-06-02T19:56:34.074Z,21.30
2018-06-02T19:59:02.160Z,21.40
2018-06-02T20:01:30.275Z,21.40
2018-06-02T20:03:58.488Z,21.40
2018-06-02T20:06:26.589Z,21.40
2018-06-02T20:08:54.874Z,21.40
2018-06-02T20:11:23.725Z,21.40
2018-06-02T20:13:51.826Z,21.40
2018-06-02T20:16:19.903Z,21.40
2018-06-02T20:18:48.128Z,21.40
2018-06-02T20:21:16.310Z,21.40
2018-06-02T20:23:44.451Z,21.30
2018-06-02T20:26:12.668Z,21.30
2018-06-02T20:28:40.789Z,21.30
2018-06-02T20:31:09.005Z,21.20
2018-06-02T20:33:37.109Z,21.20
2018-06-02T20:36:05.534Z,21.10
2018-06-02T20:38:34.018Z,21.10
2018-06-02T20:41:02.183Z,21.10
2018-06-02T20:43:32.621Z,21.10
2018-06-02T20:46:01.057Z,21.20
2018-06-02T20:48:29.168Z,21.20
2018-06-02T20:50:57.385Z,21.20
2018-06-02T20:53:25.590Z,21.20
2018-06-02T20:55:55.278Z,21.10
2018-06-02T20:58:23.467Z,21.10
2018-06-02T21:00:51.578Z,21.10
2018-06-02T21:03:19.761Z,21.10
2018-06-02T21:05:47.982Z,21.10
2018-06-02T21:08:16.073Z,21.10
2018-06-02T21:10:44.212Z,21.10
2018-06-02T21:13:12.296Z,21.10
2018-06-02T21:15:40.412Z,21.10
2018-06-02T21:18:09.536Z,21.10
2018-06-02T21:20:37.700Z,21.00
2018-06-02T21:23:05.843Z,20.90
2018-06-02T21:25:33.948Z,20.90
2018-06-02T21:28:02.085Z,20.90
2018-06-02T21:30:30.983Z,20.90
2018-06-02T21:32:59.121Z,20.80
2018-06-02T21:35:27.229Z,20.80
2018-06-02T21:37:55.327Z,20.70
2018-06-02T21:40:24.270Z,20.70
2018-06-02T21:42:52.564Z,20.60
2018-06-02T21:45:20.649Z,20.50
2018-06-02T21:47:48.791Z,20.50
2018-06-02T21:50:17.059Z,20.50
2018-06-02T21:52:45.184Z,20.50
2018-06-02T21:55:13.310Z,20.40
2018-06-02T21:57:41.581Z,20.40
2018-06-02T22:00:09.758Z,20.40
2018-06-02T22:02:37.897Z,20.40
2018-06-02T22:05:06.029Z,20.30
2018-06-02T22:07:34.351Z,20.30
2018-06-02T22:12:30.384Z,20.40
2018-06-02T22:14:58.699Z,20.40
2018-06-02T22:17:26.887Z,20.40
2018-06-02T22:19:54.964Z,20.40
2018-06-02T22:22:23.108Z,20.40
2018-06-02T22:24:51.247Z,20.30
2018-06-02T22:29:47.219Z,20.30
2018-06-02T22:32:15.468Z,20.30
2018-06-02T22:34:43.581Z,20.20
2018-06-02T22:37:11.680Z,20.20
2018-06-02T22:39:39.992Z,20.20
2018-06-02T22:42:08.071Z,20.20
2018-06-02T22:47:04.134Z,20.20
2018-06-02T22:52:00.344Z,20.10
2018-06-02T22:54:28.438Z,20.10
2018-06-02T22:56:56.629Z,20.10
2018-06-02T22:59:24.972Z,20.00
2018-06-02T23:01:53.039Z,20.00
2018-06-02T23:04:21.286Z,20.00
2018-06-02T23:06:49.423Z,20.00
2018-06-02T23:09:17.529Z,20.00
2018-06-02T23:11:45.769Z,20.00
2018-06-02T23:14:20.791Z,19.90
2018-06-02T23:16:48.863Z,19.90
2018-06-02T23:19:16.959Z,19.90
2018-06-02T23:21:45.288Z,19.90
2018-06-02T23:24:13.809Z,19.80
2018-06-02T23:26:41.880Z,19.70
2018-06-02T23:29:10.011Z,19.70
2018-06-02T23:31:38.139Z,19.70
2018-06-02T23:34:06.232Z,19.70
2018-06-02T23:36:34.330Z,19.70
2018-06-02T23:39:02.499Z,19.70
2018-06-02T23:41:30.579Z,19.70
2018-06-02T23:43:58.657Z,19.70
2018-06-02T23:46:26.841Z,19.70
2018-06-02T23:48:54.963Z,19.60
2018-06-02T23:51:23.084Z,19.60
2018-06-02T23:53:51.354Z,19.60
2018-06-02T23:56:19.464Z,19.60
2018-06-02T23:58:47.567Z,19.60
